Time;durP1;ratioP1;P1;durP2;ratioP2;P2;SDS_P1;SDS_P2;PMS_P1;PMS_P2;Temp;Humidity;BMP_temperature;BMP_pressure;BME280_temperature;BME280_humidity;BME280_pressure;Samples;Min_cycle;Max_cycle;Signal;HPM_P1;HPM_P2
2022/06/05 00:01:29;;;;;;;6.32;5.25;;;;;;;22.49;74.98;99144.63;5088463;28;20240;-85
2022/06/05 00:04:02;;;;;;;7.80;5.18;;;;;;;22.48;75.48;99129.16;5092912;28;20741;-85
2022/06/05 00:06:34;;;;;;;7.90;5.32;;;;;;;22.44;75.41;99139.16;5095240;28;20237;-85
2022/06/05 00:09:17;;;;;;;7.85;5.40;;;;;;;22.40;75.80;99137.09;5095237;28;20285;-79
2022/06/05 00:11:52;;;;;;;6.57;5.05;;;;;;;22.37;75.32;99128.69;5095203;28;20276;-85
2022/06/05 00:14:19;;;;;;;6.63;5.43;;;;;;;22.36;75.25;99126.25;5095552;28;20304;-85
2022/06/05 00:16:45;;;;;;;6.85;5.50;;;;;;;22.35;75.40;99124.66;5095463;28;20264;-78
2022/06/05 00:19:11;;;;;;;7.20;5.80;;;;;;;22.32;75.79;99120.63;5094989;28;20262;-85
2022/06/05 00:21:37;;;;;;;7.88;5.53;;;;;;;22.35;75.34;99115.03;5095242;28;20331;-79
2022/06/05 00:24:04;;;;;;;7.15;5.40;;;;;;;22.33;75.41;99106.59;5095126;28;20206;-79
2022/06/05 00:26:40;;;;;;;8.10;5.25;;;;;;;22.31;75.79;99108.59;5094957;28;20229;-79
2022/06/05 00:29:21;;;;;;;6.57;5.55;;;;;;;22.31;75.38;99103.38;5094959;28;20232;-79
2022/06/05 00:31:55;;;;;;;8.07;5.40;;;;;;;22.28;75.39;99103.75;5095087;28;20269;-84
2022/06/05 00:34:22;;;;;;;6.57;5.40;;;;;;;22.26;75.67;99107.53;5094889;28;20645;-79
2022/06/05 00:37:07;;;;;;;6.88;5.60;;;;;;;22.25;76.12;99106.72;5094752;28;20234;-85
2022/06/05 00:39:45;;;;;;;6.07;5.30;;;;;;;22.23;75.89;99113.91;5095039;28;20278;-84
2022/06/05 00:42:16;;;;;;;7.47;5.53;;;;;;;22.24;76.11;99120.72;5095115;28;20708;-79
2022/06/05 00:44:46;;;;;;;6.07;5.37;;;;;;;22.27;76.18;99107.34;5094967;28;20206;-80
2022/06/05 00:47:16;;;;;;;5.82;5.20;;;;;;;22.30;77.05;99106.97;5094833;28;20236;-81
2022/06/05 00:49:46;;;;;;;8.00;5.30;;;;;;;22.30;77.41;99106.97;5094801;28;20284;-80
2022/06/05 00:52:15;;;;;;;7.57;5.35;;;;;;;22.28;77.60;99106.38;5094846;28;20241;-83
2022/06/05 00:54:41;;;;;;;6.28;5.53;;;;;;;22.30;77.23;99111.38;5094550;28;20691;-85
2022/06/05 00:57:11;;;;;;;6.32;5.57;;;;;;;22.28;77.57;99103.75;5094938;28;20230;-84
2022/06/05 00:59:38;;;;;;;7.13;5.82;;;;;;;22.27;78.20;99107.34;5094871;28;20215;-84
2022/06/05 01:02:05;;;;;;;6.32;5.35;;;;;;;22.26;78.51;99104.94;5094640;28;20233;-84
2022/06/05 01:04:34;;;;;;;6.38;5.32;;;;;;;22.22;78.38;99109.69;5094601;28;20222;-84
2022/06/05 01:07:00;;;;;;;7.43;5.93;;;;;;;22.20;77.82;99116.09;5094417;28;20261;-84
2022/06/05 01:09:26;;;;;;;6.05;5.20;;;;;;;22.10;77.87;99111.13;5094365;28;20238;-84
2022/06/05 01:12:02;;;;;;;11.23;5.75;;;;;;;22.08;77.92;99118.34;5094368;28;20247;-83
2022/06/05 01:14:39;;;;;;;11.18;6.18;;;;;;;22.06;78.25;99120.31;5093147;28;20217;-79
2022/06/05 01:17:15;;;;;;;8.57;5.57;;;;;;;22.01;77.99;99117.44;5091324;28;20237;-78
2022/06/05 01:19:51;;;;;;;8.27;5.82;;;;;;;21.97;77.83;99118.81;5091116;28;20206;-84
2022/06/05 01:22:58;;;;;;;7.20;6.00;;;;;;;22.02;77.95;99132.06;5091049;28;20237;-84
2022/06/05 01:25:59;;;;;;;7.63;5.50;;;;;;;22.07;78.15;99127.13;5090927;28;20296;-78
2022/06/05 01:28:30;;;;;;;8.93;5.97;;;;;;;22.07;78.24;99116.72;5090876;28;20705;-78
2022/06/05 01:31:11;;;;;;;6.82;5.97;;;;;;;22.13;78.55;99115.97;5090871;28;20767;-79
2022/06/05 01:33:43;;;;;;;6.97;5.93;;;;;;;22.14;78.84;99107.19;5090894;28;20205;-79
2022/06/05 01:36:16;;;;;;;8.93;5.93;;;;;;;22.09;78.42;99109.53;5090936;28;20282;-84
2022/06/05 01:38:52;;;;;;;7.93;5.65;;;;;;;21.99;78.00;99120.25;5090861;28;20206;-84
2022/06/05 01:41:26;;;;;;;8.45;5.93;;;;;;;21.98;78.14;99117.81;5091033;28;20366;-84
2022/06/05 01:43:56;;;;;;;9.00;6.00;;;;;;;21.96;78.39;99115.38;5091052;28;20214;-82
2022/06/05 01:46:29;;;;;;;7.93;6.17;;;;;;;21.95;79.12;99118.19;5090598;28;20225;-84
2022/06/05 01:49:01;;;;;;;5.95;5.35;;;;;;;21.93;78.77;99106.16;5090742;28;20667;-79
2022/06/05 01:51:32;;;;;;;10.88;6.00;;;;;;;21.88;78.54;99098.09;5090393;28;20904;-79
2022/06/05 01:54:03;;;;;;;7.18;5.53;;;;;;;21.91;78.02;99100.34;5090665;28;20206;-83
2022/06/05 01:56:34;;;;;;;10.20;6.15;;;;;;;21.93;78.79;99094.94;5090536;28;20279;-83
2022/06/05 01:59:07;;;;;;;9.00;5.77;;;;;;;21.96;78.72;99093.75;5090472;28;20217;-83
2022/06/05 02:01:37;;;;;;;8.30;6.67;;;;;;;21.90;78.97;99093.53;5090551;28;20637;-83
2022/06/05 02:04:07;;;;;;;9.60;5.77;;;;;;;21.86;78.93;99105.28;5090604;28;20233;-79
2022/06/05 02:06:38;;;;;;;7.97;5.80;;;;;;;21.83;79.71;99100.44;5090271;28;20229;-79
2022/06/05 02:09:11;;;;;;;8.07;6.50;;;;;;;21.79;79.59;99103.59;5090317;28;20233;-79
2022/06/05 02:11:38;;;;;;;9.93;6.27;;;;;;;21.78;79.86;99101.97;5090439;28;20303;-83
2022/06/05 02:14:07;;;;;;;8.30;6.57;;;;;;;21.81;80.16;99101.59;5090236;28;20225;-83
2022/06/05 02:16:36;;;;;;;10.07;6.68;;;;;;;21.77;80.29;99090.75;5090374;28;20226;-84
2022/06/05 02:19:08;;;;;;;8.35;6.43;;;;;;;21.72;80.55;99103.50;5090004;28;20206;-79
2022/06/05 02:21:37;;;;;;;8.25;6.68;;;;;;;21.69;80.34;99104.66;5090050;28;20299;-79
2022/06/05 02:24:04;;;;;;;9.70;6.80;;;;;;;21.66;80.56;99104.25;5090287;28;20228;-79
2022/06/05 02:26:30;;;;;;;8.70;6.40;;;;;;;21.67;80.46;99100.63;5088653;28;20268;-79
2022/06/05 02:28:58;;;;;;;8.23;6.67;;;;;;;21.70;80.88;99095.09;5089819;28;20216;-83
2022/06/05 02:31:35;;;;;;;9.73;6.70;;;;;;;21.69;81.68;99098.66;5090029;28;20727;-83
2022/06/05 02:34:10;;;;;;;10.07;6.90;;;;;;;21.62;81.80;99108.19;5089890;28;20202;-79
2022/06/05 02:36:45;;;;;;;10.90;7.43;;;;;;;21.57;82.14;99110.53;5089948;28;20237;-79
2022/06/05 02:39:21;;;;;;;8.67;6.87;;;;;;;21.55;82.37;99104.69;5089668;28;20217;-79
2022/06/05 02:41:54;;;;;;;8.57;7.37;;;;;;;21.55;82.09;99102.09;5089849;28;20621;-79
2022/06/05 02:44:29;;;;;;;9.07;6.50;;;;;;;21.52;82.70;99097.25;5089935;28;20214;-79
2022/06/05 02:47:14;;;;;;;8.47;6.40;;;;;;;21.43;82.87;99099.94;5089483;28;20730;-83
2022/06/05 02:49:48;;;;;;;7.93;6.93;;;;;;;21.40;82.95;99095.09;5089737;28;20252;-79
2022/06/05 02:52:15;;;;;;;12.03;7.50;;;;;;;21.38;83.30;99097.09;5089728;28;20287;-79
2022/06/05 02:54:46;;;;;;;8.70;7.07;;;;;;;21.36;83.16;99093.03;5089420;28;20730;-83
2022/06/05 02:57:13;;;;;;;8.80;6.40;;;;;;;21.31;83.38;99090.97;5089797;28;20343;-79
2022/06/05 02:59:40;;;;;;;8.40;6.70;;;;;;;21.29;83.58;99092.91;5089393;28;20217;-83
2022/06/05 03:04:50;;;;;;;10.47;6.83;;;;;;;21.20;84.63;99101.81;5089484;28;20210;-79
2022/06/05 03:07:16;;;;;;;9.33;7.20;;;;;;;21.18;85.17;99101.19;5089482;28;20279;-83
2022/06/05 03:09:43;;;;;;;10.97;7.10;;;;;;;21.20;85.36;99101.81;5089139;28;20228;-83
2022/06/05 03:12:10;;;;;;;9.40;7.33;;;;;;;21.19;85.57;99100.19;5089421;28;20228;-79
2022/06/05 03:14:37;;;;;;;10.30;7.60;;;;;;;21.17;86.68;99107.38;5089184;28;20217;-83
2022/06/05 03:17:04;;;;;;;10.97;8.03;;;;;;;21.17;87.01;99107.38;5089635;28;20244;-82
2022/06/05 03:19:30;;;;;;;9.30;7.50;;;;;;;21.18;87.50;99101.19;5089138;28;20224;-79
2022/06/05 03:21:56;;;;;;;8.27;7.27;;;;;;;21.19;87.19;99108.81;5088718;28;20747;-79
2022/06/05 03:24:22;;;;;;;11.27;7.40;;;;;;;21.23;87.48;99104.03;5088888;28;20212;-79
2022/06/05 03:26:48;;;;;;;11.73;7.53;;;;;;;21.28;87.58;99106.13;5089448;28;20807;-79
2022/06/05 03:29:15;;;;;;;10.07;7.50;;;;;;;21.25;87.60;99107.28;5089081;28;20228;-79
2022/06/05 03:31:41;;;;;;;10.83;7.50;;;;;;;21.22;88.57;99113.66;5089127;28;20270;-84
2022/06/05 03:34:08;;;;;;;12.70;8.47;;;;;;;21.23;89.03;99119.66;5089048;28;20253;-79
2022/06/05 03:36:34;;;;;;;11.33;8.20;;;;;;;21.26;89.49;99114.09;5089141;28;20234;-83
2022/06/05 03:39:01;;;;;;;10.37;8.27;;;;;;;21.29;89.85;99103.31;5088367;28;20213;-79
2022/06/05 03:41:27;;;;;;;12.97;8.63;;;;;;;21.31;90.13;99109.16;5088703;28;20232;-83
2022/06/05 03:43:53;;;;;;;13.30;8.33;;;;;;;21.35;90.69;99107.84;5088686;28;20221;-79
2022/06/05 03:46:19;;;;;;;11.60;8.67;;;;;;;21.39;90.88;99103.91;5088710;28;20742;-83
2022/06/05 03:48:46;;;;;;;13.27;8.87;;;;;;;21.40;91.16;99107.31;5088847;28;20224;-83
2022/06/05 03:51:17;;;;;;;12.23;8.33;;;;;;;21.42;91.21;99098.34;5088490;28;20245;-79
2022/06/05 03:53:43;;;;;;;11.80;8.17;;;;;;;21.46;91.08;99104.78;5089110;28;20259;-84
2022/06/05 03:56:10;;;;;;;13.23;8.37;;;;;;;21.42;92.17;99108.75;5088503;28;20236;-84
2022/06/05 03:58:36;;;;;;;12.67;8.73;;;;;;;21.47;92.06;99106.41;5088545;28;20217;-80
2022/06/05 04:01:03;;;;;;;10.60;8.50;;;;;;;21.57;91.38;99100.13;5088637;28;20273;-79
2022/06/05 04:03:30;;;;;;;12.53;8.37;;;;;;;21.62;91.63;99108.19;5088506;28;20277;-79
2022/06/05 04:05:56;;;;;;;13.33;9.20;;;;;;;21.67;91.24;99105.84;5088628;28;20245;-84
2022/06/05 04:08:23;;;;;;;12.37;8.93;;;;;;;21.71;91.68;99109.72;5088379;28;20257;-84
2022/06/05 04:10:49;;;;;;;10.00;8.27;;;;;;;21.71;91.90;99117.53;5088267;28;20260;-79
2022/06/05 04:13:15;;;;;;;13.77;8.97;;;;;;;21.77;92.04;99116.78;5088437;28;20221;-84
2022/06/05 04:15:41;;;;;;;11.87;9.13;;;;;;;21.82;92.46;99114.44;5088510;28;20660;-84
2022/06/05 04:18:08;;;;;;;14.33;9.00;;;;;;;21.92;92.25;99119.34;5088508;28;20461;-79
2022/06/05 04:20:38;;;;;;;11.90;9.30;;;;;;;22.03;91.48;99110.28;5088639;28;20221;-84
2022/06/05 04:23:04;;;;;;;10.77;8.63;;;;;;;22.09;91.00;99109.53;5088541;28;20210;-84
2022/06/05 04:25:31;;;;;;;12.20;8.77;;;;;;;22.14;91.25;99099.38;5088291;28;20594;-84
2022/06/05 04:27:57;;;;;;;11.70;8.77;;;;;;;22.24;90.79;99097.28;5088338;28;20214;-82
2022/06/05 04:30:25;;;;;;;12.05;8.63;;;;;;;22.33;90.57;99101.38;5088055;28;20295;-79
2022/06/05 04:32:51;;;;;;;11.57;8.83;;;;;;;22.48;89.57;99113.53;5088101;28;20210;-84
2022/06/05 04:35:18;;;;;;;12.40;9.27;;;;;;;22.58;90.35;99112.22;5087993;28;20210;-84
2022/06/05 04:37:44;;;;;;;13.55;9.23;;;;;;;22.68;89.69;99109.28;5088157;28;20222;-79
2022/06/05 04:40:11;;;;;;;13.52;9.20;;;;;;;22.72;89.03;99123.59;5087948;28;20212;-85
2022/06/05 04:42:38;;;;;;;12.80;9.20;;;;;;;22.83;88.43;99119.63;5088327;28;20241;-85
2022/06/05 04:45:05;;;;;;;14.32;9.13;;;;;;;23.03;88.66;99119.81;5088265;28;20218;-79
2022/06/05 04:47:31;;;;;;;15.20;9.63;;;;;;;23.14;87.53;99123.69;5087922;28;20238;-85
2022/06/05 04:49:57;;;;;;;13.23;10.25;;;;;;;23.19;86.60;99118.72;5088299;28;20230;-85
2022/06/05 04:52:23;;;;;;;15.05;9.02;;;;;;;23.32;87.27;99120.59;5091673;28;20244;-85
2022/06/05 04:54:50;;;;;;;13.70;10.00;;;;;;;23.45;86.62;99125.91;5091388;28;20676;-79
2022/06/05 04:57:16;;;;;;;13.35;9.98;;;;;;;23.53;86.25;99123.09;5091431;28;20226;-85
2022/06/05 04:59:43;;;;;;;13.13;10.23;;;;;;;23.46;84.56;99122.28;5091392;28;20259;-80
2022/06/05 05:02:09;;;;;;;13.60;9.73;;;;;;;23.39;85.24;99122.25;5091272;28;20234;-79
2022/06/05 05:04:35;;;;;;;14.77;10.07;;;;;;;23.38;86.40;99125.84;5091329;28;20684;-79
2022/06/05 05:07:03;;;;;;;12.88;10.20;;;;;;;23.39;85.72;99122.25;5091519;28;20731;-80
2022/06/05 05:09:29;;;;;;;14.02;10.10;;;;;;;23.56;88.04;99122.75;5091173;28;20222;-80
2022/06/05 05:11:55;;;;;;;15.38;10.73;;;;;;;23.72;85.59;99117.19;5091359;28;20241;-80
2022/06/05 05:14:22;;;;;;;12.45;9.80;;;;;;;24.01;84.26;99122.31;5091218;28;20214;-80
2022/06/05 05:16:48;;;;;;;17.23;10.82;;;;;;;24.27;84.35;99124.19;5091089;28;20230;-88
2022/06/05 05:19:15;;;;;;;13.20;9.93;;;;;;;24.50;82.63;99119.41;5091063;28;20220;-88
2022/06/05 05:21:41;;;;;;;12.40;10.48;;;;;;;24.73;82.05;99119.03;5090978;28;20230;-87
2022/06/05 05:24:08;;;;;;;15.18;9.98;;;;;;;24.94;81.40;99125.03;5091104;28;20205;-81
2022/06/05 05:26:35;;;;;;;13.05;9.07;;;;;;;25.20;81.42;99129.47;5091072;28;20242;-80
2022/06/05 05:29:03;;;;;;;11.07;9.65;;;;;;;25.33;79.63;99134.66;5091077;28;20206;-86
2022/06/05 05:31:33;;;;;;;12.93;9.63;;;;;;;25.53;77.79;99134.59;5090887;28;20633;-81
2022/06/05 05:34:00;;;;;;;14.57;10.30;;;;;;;25.73;76.87;99139.78;5090839;28;20214;-87
2022/06/05 05:36:27;;;;;;;14.80;10.57;;;;;;;25.88;75.58;99142.94;5090902;28;20329;-87
2022/06/05 05:44:25;;;;;;;12.88;9.68;;;;;;;26.41;74.33;99132.19;5090740;28;20658;-85
2022/06/05 05:46:51;;;;;;;11.25;10.00;;;;;;;26.64;74.89;99136.84;5090476;28;20697;-80
2022/06/05 05:49:18;;;;;;;15.00;10.23;;;;;;;26.74;72.60;99133.78;5090656;28;20206;-81
2022/06/05 05:51:44;;;;;;;13.55;10.25;;;;;;;27.03;78.96;99128.88;5090946;28;20230;-80
2022/06/05 05:54:11;;;;;;;14.43;10.48;;;;;;;27.23;72.85;99128.72;5090790;28;20210;-86
2022/06/05 05:56:38;;;;;;;13.30;9.98;;;;;;;27.30;70.11;99140.72;5090642;28;20234;-80
2022/06/05 05:59:05;;;;;;;12.65;9.93;;;;;;;27.44;69.31;99130.88;5090832;28;20213;-87
2022/06/05 06:01:32;;;;;;;12.57;9.50;;;;;;;27.52;66.55;99129.81;5090191;28;20230;-86
2022/06/05 06:03:58;;;;;;;11.23;9.00;;;;;;;27.72;67.28;99137.41;5090390;28;20210;-86
2022/06/05 06:06:28;;;;;;;13.05;9.60;;;;;;;28.00;72.23;99134.25;5090592;28;20234;-87
2022/06/05 06:08:55;;;;;;;13.00;9.95;;;;;;;28.08;66.58;99139.22;5090435;28;20228;-80
2022/06/05 06:11:22;;;;;;;10.02;8.93;;;;;;;28.19;64.59;99135.03;5090239;28;20234;-80
2022/06/05 06:13:48;;;;;;;15.77;10.00;;;;;;;28.28;65.82;99141.56;5090472;28;20210;-87
2022/06/05 06:16:14;;;;;;;13.23;9.68;;;;;;;28.48;68.08;99130.78;5090421;28;20294;-86
2022/06/05 06:18:41;;;;;;;13.57;9.80;;;;;;;28.64;65.75;99140.63;5090189;28;20218;-79
2022/06/05 06:21:07;;;;;;;14.27;9.90;;;;;;;28.72;63.77;99141.31;5090063;28;20230;-79
2022/06/05 06:23:34;;;;;;;12.68;9.70;;;;;;;28.69;63.21;99147.06;5090117;28;20573;-86
2022/06/05 06:26:04;;;;;;;11.15;9.80;;;;;;;28.82;63.89;99152.06;5090042;28;20230;-86
2022/06/05 06:28:30;;;;;;;13.95;9.80;;;;;;;28.99;62.83;99142.47;5090354;28;20279;-87
2022/06/05 06:30:56;;;;;;;12.20;9.70;;;;;;;29.10;62.59;99151.44;5089732;28;20247;-87
2022/06/05 06:33:22;;;;;;;14.38;9.75;;;;;;;29.27;61.72;99146.25;5090136;28;20206;-86
2022/06/05 06:35:49;;;;;;;12.07;9.18;;;;;;;29.49;62.34;99141.97;5089927;28;20654;-80
2022/06/05 06:38:15;;;;;;;12.32;8.82;;;;;;;29.56;60.46;99142.66;5089751;28;20737;-87
2022/06/05 06:40:42;;;;;;;16.88;9.80;;;;;;;29.81;61.99;99143.41;5089978;28;20210;-86
2022/06/05 06:43:08;;;;;;;10.93;9.35;;;;;;;30.07;64.29;99142.03;5089497;28;20703;-79
2022/06/05 06:45:34;;;;;;;14.68;9.95;;;;;;;30.10;60.86;99146.81;5090184;28;20218;-86
2022/06/05 06:48:00;;;;;;;11.00;9.30;;;;;;;30.19;60.61;99145.41;5089654;28;20214;-86
2022/06/05 06:50:26;;;;;;;11.45;9.15;;;;;;;30.31;62.18;99148.84;5089675;28;20230;-87
2022/06/05 06:52:52;;;;;;;16.35;9.60;;;;;;;30.35;59.36;99142.03;5089714;28;20218;-87
2022/06/05 06:55:19;;;;;;;11.85;9.68;;;;;;;30.50;58.77;99146.75;5089694;28;20609;-87
2022/06/05 06:57:46;;;;;;;11.32;9.20;;;;;;;30.66;62.02;99139.84;5089474;28;20268;-80
2022/06/05 07:00:15;;;;;;;11.13;8.73;;;;;;;30.77;57.64;99152.16;5089517;28;20210;-87
2022/06/05 07:02:42;;;;;;;11.48;9.00;;;;;;;31.13;61.15;99139.53;5089537;28;20237;-86
2022/06/05 07:05:09;;;;;;;11.07;8.80;;;;;;;31.08;58.27;99152.66;5089383;28;20457;-87
2022/06/05 07:07:35;;;;;;;10.00;8.95;;;;;;;31.09;56.71;99155.03;5089434;28;20230;-79
2022/06/05 07:10:02;;;;;;;12.48;8.55;;;;;;;31.26;56.75;99148.91;5089269;28;20717;-79
2022/06/05 07:12:28;;;;;;;13.77;8.60;;;;;;;31.15;56.54;99150.63;5088745;28;20508;-84
2022/06/05 07:14:55;;;;;;;10.43;8.32;;;;;;;31.17;56.58;99148.53;5089428;28;20210;-86
2022/06/05 07:17:21;;;;;;;10.98;7.93;;;;;;;31.32;57.90;99147.94;5089143;28;20234;-85
2022/06/05 07:19:47;;;;;;;10.77;8.25;;;;;;;31.34;55.90;99149.28;5089101;28;20688;-78
2022/06/05 07:22:13;;;;;;;10.82;8.50;;;;;;;31.33;54.85;99144.28;5088967;28;20233;-85
2022/06/05 07:24:39;;;;;;;12.52;8.07;;;;;;;31.49;54.72;99138.16;5088709;28;20714;-83
2022/06/05 07:27:06;;;;;;;13.05;8.43;;;;;;;31.66;56.45;99142.56;5089172;28;20240;-79
2022/06/05 07:29:32;;;;;;;11.85;8.40;;;;;;;31.73;55.33;99138.66;5088999;28;20259;-83
2022/06/05 07:31:58;;;;;;;9.15;7.97;;;;;;;31.87;57.45;99148.88;5089329;28;20241;-82
2022/06/05 07:34:25;;;;;;;14.15;8.18;;;;;;;32.09;57.28;99147.00;5089099;28;20206;-83
2022/06/05 07:36:51;;;;;;;11.32;8.73;;;;;;;32.15;52.82;99146.00;5089122;28;20229;-82
2022/06/05 07:39:17;;;;;;;10.63;8.48;;;;;;;32.36;53.78;99141.69;5088831;28;20213;-85
2022/06/05 07:41:43;;;;;;;11.25;8.88;;;;;;;32.25;53.87;99138.16;5086753;28;20233;-83
2022/06/05 07:44:09;;;;;;;14.68;11.60;;;;;;;32.62;55.13;99134.78;5069560;28;20225;-83
2022/06/05 07:46:36;;;;;;;12.90;11.15;;;;;;;32.66;53.18;99130.56;5088635;28;20241;-82
2022/06/05 07:49:04;;;;;;;11.73;8.77;;;;;;;32.44;53.26;99133.28;5088694;28;20206;-83
2022/06/05 07:54:30;;;;;;;11.68;8.13;;;;;;;32.76;53.06;99139.63;5088804;28;20303;-87
2022/06/05 07:56:58;;;;;;;11.60;8.88;;;;;;;32.82;51.84;99133.31;5079403;28;20743;-81
2022/06/05 07:59:25;;;;;;;13.10;8.55;;;;;;;32.98;52.61;99132.34;5088382;28;20213;-80
2022/06/05 08:01:51;;;;;;;9.77;8.07;;;;;;;33.21;52.57;99131.16;5068072;28;20237;-86
2022/06/05 08:04:18;;;;;;;12.60;8.32;;;;;;;33.33;55.11;99130.94;5086081;28;20213;-86
2022/06/05 08:06:44;;;;;;;12.40;8.65;;;;;;;33.40;51.04;99134.16;5088877;28;20233;-82
2022/06/05 08:09:10;;;;;;;17.80;14.43;;;;;;;33.57;51.88;99128.69;5071463;28;20221;-84
2022/06/05 08:11:38;;;;;;;12.93;9.32;;;;;;;33.45;52.39;99128.88;5068215;28;20262;-82
2022/06/05 08:14:04;;;;;;;15.82;8.30;;;;;;;33.71;50.34;99136.94;5068587;28;20267;-83
2022/06/05 08:16:32;;;;;;;11.02;7.63;;;;;;;33.88;50.76;99129.53;5068097;28;20234;-80
2022/06/05 08:18:58;;;;;;;11.98;7.68;;;;;;;33.94;48.42;99128.47;5068018;28;20249;-80
2022/06/05 08:21:26;;;;;;;9.02;7.40;;;;;;;34.07;47.49;99127.22;5068255;28;20239;-86
2022/06/05 08:23:52;;;;;;;12.48;7.75;;;;;;;34.06;50.15;99119.50;5068486;28;20301;-85
2022/06/05 08:26:18;;;;;;;10.02;7.97;;;;;;;34.18;50.98;99123.50;5071956;28;20474;-80
2022/06/05 08:28:45;;;;;;;11.15;8.15;;;;;;;34.24;50.52;99126.97;5071727;28;20206;-79
2022/06/05 08:31:11;;;;;;;12.25;7.95;;;;;;;34.43;47.79;99125.34;5071547;28;20625;-80
2022/06/05 08:33:37;;;;;;;9.57;7.72;;;;;;;34.33;49.50;99129.88;5071691;28;20711;-81
2022/06/05 08:36:04;;;;;;;11.60;7.60;;;;;;;34.38;48.56;99130.66;5071687;28;20241;-79
2022/06/05 08:41:30;;;;;;;16.23;8.85;;;;;;;33.84;49.31;99125.84;5071381;28;20279;-80
2022/06/05 08:44:19;;;;;;;11.65;8.32;;;;;;;33.20;50.37;99123.47;5071630;28;20210;-84
2022/06/05 08:46:51;;;;;;;9.75;7.75;;;;;;;33.18;51.62;99117.63;5071348;28;20237;-80
2022/06/05 08:49:29;;;;;;;10.07;8.10;;;;;;;33.42;52.39;99110.81;5071296;28;20941;-80
2022/06/05 08:52:02;;;;;;;15.85;8.65;;;;;;;33.29;51.71;99106.03;5071321;28;20234;-80
2022/06/05 08:54:38;;;;;;;11.98;8.20;;;;;;;33.68;50.85;99113.59;5071091;28;20685;-85
2022/06/05 08:57:11;;;;;;;8.95;8.00;;;;;;;33.69;50.01;99109.91;5071359;28;20786;-82
2022/06/05 08:59:43;;;;;;;13.93;8.27;;;;;;;33.56;50.65;99109.31;5071033;28;20203;-83
2022/06/05 09:02:19;;;;;;;14.88;8.10;;;;;;;33.85;49.50;99108.84;5071143;28;20235;-85
2022/06/05 09:04:51;;;;;;;10.75;8.07;;;;;;;33.73;49.33;99106.44;5070950;28;20214;-86
2022/06/05 09:07:20;;;;;;;11.00;8.07;;;;;;;33.74;53.69;99107.22;5070890;28;20231;-88
2022/06/05 09:09:51;;;;;;;14.85;8.02;;;;;;;33.74;50.98;99104.59;5070738;28;20230;-86
2022/06/05 09:12:30;;;;;;;13.30;8.50;;;;;;;33.99;48.30;99103.84;5071156;28;20234;-81
2022/06/05 09:15:02;;;;;;;12.90;8.10;;;;;;;33.74;48.94;99101.94;5070883;28;20218;-85
2022/06/05 09:17:28;;;;;;;10.48;7.90;;;;;;;33.79;49.75;99099.28;5071097;28;20284;-82
2022/06/05 09:19:57;;;;;;;10.57;8.02;;;;;;;33.73;48.68;99098.47;5070704;28;20207;-85
2022/06/05 09:22:32;;;;;;;11.50;7.68;;;;;;;34.00;47.50;99106.19;5070660;28;20258;-86
2022/06/05 09:25:26;;;;;;;10.38;7.30;;;;;;;34.09;47.11;99103.84;5070554;28;20210;-86
2022/06/05 09:28:14;;;;;;;10.48;7.15;;;;;;;34.01;47.30;99107.81;5070693;28;20687;-83
2022/06/05 09:30:51;;;;;;;12.32;7.93;;;;;;;34.18;47.85;99096.16;5070364;28;20222;-85
2022/06/05 09:33:21;;;;;;;10.80;7.65;;;;;;;34.23;49.13;99094.31;5070773;28;20293;-84
2022/06/05 09:35:50;;;;;;;11.98;7.38;;;;;;;34.51;46.90;99094.03;5069563;28;20234;-84
2022/06/05 09:38:22;;;;;;;8.93;7.22;;;;;;;34.28;47.31;99098.81;5070469;28;20210;-83
2022/06/05 09:41:16;;;;;;;9.27;7.53;;;;;;;34.27;47.49;99089.28;5070376;28;20234;-82
2022/06/05 09:43:55;;;;;;;11.80;7.18;;;;;;;34.36;46.23;99095.63;5070334;28;20280;-83
2022/06/05 09:46:35;;;;;;;8.82;7.03;;;;;;;34.28;47.22;99104.13;5070482;28;20234;-82
2022/06/05 09:49:08;;;;;;;8.75;6.65;;;;;;;34.17;46.76;99087.41;5070349;28;20257;-84
2022/06/05 09:51:36;;;;;;;9.57;5.93;;;;;;;34.17;44.45;99094.56;5070331;28;20352;-84
2022/06/05 09:54:11;;;;;;;7.35;6.50;;;;;;;34.39;46.79;99097.75;5071094;28;20221;-86
2022/06/05 09:59:38;;;;;;;9.80;6.80;;;;;;;34.43;46.65;99084.75;5070395;28;20237;-81
2022/06/05 10:02:07;;;;;;;9.27;6.00;;;;;;;34.17;42.79;99099.88;5070653;28;20604;-83
2022/06/05 10:04:35;;;;;;;6.22;5.32;;;;;;;34.10;43.69;99094.84;5070019;28;20253;-82
2022/06/05 10:07:06;;;;;;;8.32;5.50;;;;;;;34.16;42.25;99088.47;5070051;28;20576;-85
2022/06/05 10:09:35;;;;;;;8.70;6.43;;;;;;;34.05;43.97;99092.19;5070024;28;20223;-82
2022/06/05 10:12:07;;;;;;;9.13;6.20;;;;;;;34.12;46.23;99076.00;5070343;28;20265;-79
2022/06/05 10:14:47;;;;;;;7.97;5.93;;;;;;;34.29;44.61;99081.03;5070193;28;20661;-82
2022/06/05 10:17:45;;;;;;;13.85;6.70;;;;;;;34.21;44.97;99074.38;5069675;28;20740;-85
2022/06/05 10:20:39;;;;;;;10.48;6.20;;;;;;;34.45;42.97;99080.75;5062465;28;20716;-82
2022/06/05 10:23:15;;;;;;;9.25;6.28;;;;;;;34.60;44.12;99087.94;5069826;28;20223;-83
2022/06/05 10:25:49;;;;;;;12.27;6.10;;;;;;;34.54;43.18;99085.53;5069791;28;20214;-80
2022/06/05 10:28:19;;;;;;;6.97;5.55;;;;;;;34.59;49.67;99080.22;5070169;28;20206;-82
2022/06/05 10:30:56;;;;;;;8.32;6.00;;;;;;;34.66;42.99;99072.78;5069676;28;20774;-82
2022/06/05 10:33:32;;;;;;;10.98;6.40;;;;;;;34.88;42.50;99065.28;5069998;28;20292;-83
2022/06/05 10:36:07;;;;;;;14.10;6.70;;;;;;;34.81;43.68;99070.06;5069100;28;20292;-82
2022/06/05 10:38:41;;;;;;;12.82;7.00;;;;;;;34.59;43.27;99065.09;5068295;28;20248;-84
2022/06/05 10:41:18;;;;;;;10.00;7.75;;;;;;;34.48;46.05;99053.66;5069108;28;20260;-80
2022/06/05 10:43:53;;;;;;;10.95;7.47;;;;;;;34.73;46.13;99057.34;5069870;28;20712;-83
2022/06/05 10:46:24;;;;;;;8.57;7.40;;;;;;;34.58;45.55;99052.09;5069700;28;20367;-82
2022/06/05 10:48:57;;;;;;;10.60;7.10;;;;;;;34.61;44.05;99062.16;5068259;28;20214;-82
2022/06/05 10:51:32;;;;;;;9.40;7.00;;;;;;;34.64;43.69;99062.41;5069235;28;20238;-85
2022/06/05 10:54:07;;;;;;;8.80;7.45;;;;;;;34.77;44.62;99063.72;5069718;28;20225;-85
2022/06/05 10:56:44;;;;;;;12.48;7.82;;;;;;;34.90;45.81;99051.72;5069555;28;20238;-82
2022/06/05 10:59:19;;;;;;;15.07;8.15;;;;;;;34.91;46.78;99048.81;5069539;28;20596;-86
2022/06/05 11:02:19;;;;;;;9.02;7.75;;;;;;;35.31;46.95;99052.34;5069312;28;20667;-85
2022/06/05 11:04:57;;;;;;;9.05;7.85;;;;;;;35.22;43.40;99056.66;5069295;28;20214;-84
2022/06/05 11:07:44;;;;;;;10.23;8.15;;;;;;;35.21;43.63;99049.75;5069297;28;20234;-85
2022/06/05 11:10:17;;;;;;;12.48;8.38;;;;;;;35.22;42.12;99040.69;5069079;28;20223;-82
2022/06/05 11:15:53;;;;;;;9.95;8.13;;;;;;;35.28;42.10;99047.56;5069073;28;20206;-81
2022/06/05 11:18:27;;;;;;;11.57;8.20;;;;;;;34.95;42.60;99030.44;5068978;28;20720;-82
2022/06/05 11:20:57;;;;;;;11.70;8.20;;;;;;;34.92;43.51;99026.47;5069260;28;20237;-84
2022/06/05 11:23:28;;;;;;;9.40;7.80;;;;;;;34.98;44.63;99032.56;5068875;28;20219;-82
2022/06/05 11:26:00;;;;;;;11.02;7.72;;;;;;;35.04;48.36;99025.34;5068785;28;20233;-84
2022/06/05 11:28:42;;;;;;;10.60;8.68;;;;;;;35.22;44.62;99023.97;5068893;28;20301;-82
2022/06/05 11:31:17;;;;;;;9.88;8.27;;;;;;;35.20;44.41;99026.91;5069001;28;20230;-83
2022/06/05 11:33:53;;;;;;;10.82;8.02;;;;;;;35.18;44.38;99029.03;5069166;28;20306;-85
2022/06/05 11:36:24;;;;;;;9.63;7.97;;;;;;;34.99;44.68;99018.19;5068825;28;20229;-82
2022/06/05 11:39:02;;;;;;;9.65;7.85;;;;;;;34.93;44.43;99020.06;5069032;28;20206;-82
2022/06/05 11:41:36;;;;;;;8.80;7.82;;;;;;;34.89;43.02;99016.38;5068974;28;20239;-85
2022/06/05 11:44:26;;;;;;;11.73;7.88;;;;;;;34.99;42.41;99030.69;5068779;28;20766;-83
2022/06/05 11:47:01;;;;;;;8.60;7.25;;;;;;;35.00;44.17;99017.16;5068602;28;20234;-85
2022/06/05 11:49:38;;;;;;;10.30;7.63;;;;;;;35.20;42.47;99010.13;5068469;28;20210;-82
2022/06/05 11:52:14;;;;;;;8.48;7.60;;;;;;;35.26;43.42;99012.53;5068902;28;20258;-83
2022/06/05 11:54:47;;;;;;;9.35;7.28;;;;;;;35.45;43.13;99006.53;5068796;28;20222;-85
2022/06/05 11:57:21;;;;;;;11.40;6.88;;;;;;;35.22;39.61;99006.16;5068598;28;20253;-83
2022/06/05 11:59:53;;;;;;;9.43;6.65;;;;;;;35.12;40.61;99000.91;5067890;28;20206;-82
2022/06/05 12:02:35;;;;;;;7.53;6.13;;;;;;;34.52;38.72;98990.19;5068658;28;20246;-81